sensor_id;sensor_type;location;lat;lon;timestamp;P1;durP1;ratioP1;P2;durP2;ratioP2
22713;SDS011;11524;50.846;4.326;2023-02-13T00:00:42;13.18;;;8.95;;
22713;SDS011;11524;50.846;4.326;2023-02-13T00:03:08;11.30;;;8.48;;
22713;SDS011;11524;50.846;4.326;2023-02-13T00:05:33;11.23;;;8.40;;
22713;SDS011;11524;50.846;4.326;2023-02-13T00:07:59;12.18;;;9.40;;
22713;SDS011;11524;50.846;4.326;2023-02-13T00:10:25;13.50;;;10.50;;
22713;SDS011;11524;50.846;4.326;2023-02-13T00:12:50;10.82;;;9.13;;
22713;SDS011;11524;50.846;4.326;2023-02-13T00:15:16;10.38;;;7.78;;
22713;SDS011;11524;50.846;4.326;2023-02-13T00:17:41;13.00;;;9.30;;
22713;SDS011;11524;50.846;4.326;2023-02-13T00:20:08;12.70;;;9.98;;
22713;SDS011;11524;50.846;4.326;2023-02-13T00:22:35;12.45;;;10.15;;
22713;SDS011;11524;50.846;4.326;2023-02-13T00:25:03;11.55;;;9.75;;
22713;SDS011;11524;50.846;4.326;2023-02-13T00:27:29;11.90;;;8.57;;
22713;SDS011;11524;50.846;4.326;2023-02-13T00:29:55;14.40;;;9.38;;
22713;SDS011;11524;50.846;4.326;2023-02-13T00:32:20;13.15;;;9.60;;
22713;SDS011;11524;50.846;4.326;2023-02-13T00:34:46;14.25;;;9.77;;
22713;SDS011;11524;50.846;4.326;2023-02-13T00:37:11;15.35;;;10.25;;
22713;SDS011;11524;50.846;4.326;2023-02-13T00:39:37;13.30;;;10.43;;
22713;SDS011;11524;50.846;4.326;2023-02-13T00:42:03;13.07;;;9.98;;
22713;SDS011;11524;50.846;4.326;2023-02-13T00:44:29;14.60;;;10.10;;
22713;SDS011;11524;50.846;4.326;2023-02-13T00:46:54;11.18;;;8.68;;
22713;SDS011;11524;50.846;4.326;2023-02-13T00:49:20;12.95;;;9.52;;
22713;SDS011;11524;50.846;4.326;2023-02-13T00:51:45;12.07;;;9.38;;
22713;SDS011;11524;50.846;4.326;2023-02-13T00:54:11;13.63;;;10.27;;
22713;SDS011;11524;50.846;4.326;2023-02-13T00:56:37;11.90;;;9.20;;
22713;SDS011;11524;50.846;4.326;2023-02-13T00:59:02;14.85;;;10.00;;
22713;SDS011;11524;50.846;4.326;2023-02-13T01:01:28;10.55;;;9.27;;
22713;SDS011;11524;50.846;4.326;2023-02-13T01:03:53;14.35;;;10.05;;
22713;SDS011;11524;50.846;4.326;2023-02-13T01:06:19;13.02;;;9.93;;
22713;SDS011;11524;50.846;4.326;2023-02-13T01:08:45;12.52;;;10.18;;
22713;SDS011;11524;50.846;4.326;2023-02-13T01:11:10;10.85;;;8.27;;
22713;SDS011;11524;50.846;4.326;2023-02-13T01:13:36;11.55;;;9.25;;
22713;SDS011;11524;50.846;4.326;2023-02-13T01:16:01;11.45;;;8.82;;
22713;SDS011;11524;50.846;4.326;2023-02-13T01:18:27;12.52;;;9.80;;
22713;SDS011;11524;50.846;4.326;2023-02-13T01:21:00;11.38;;;8.80;;
22713;SDS011;11524;50.846;4.326;2023-02-13T01:23:31;11.65;;;9.10;;
22713;SDS011;11524;50.846;4.326;2023-02-13T01:25:59;12.48;;;9.52;;
22713;SDS011;11524;50.846;4.326;2023-02-13T01:28:24;12.25;;;9.38;;
22713;SDS011;11524;50.846;4.326;2023-02-13T01:30:54;13.82;;;10.68;;
22713;SDS011;11524;50.846;4.326;2023-02-13T01:33:20;13.30;;;10.25;;
22713;SDS011;11524;50.846;4.326;2023-02-13T01:35:51;13.02;;;8.57;;
22713;SDS011;11524;50.846;4.326;2023-02-13T01:38:17;12.75;;;10.07;;
22713;SDS011;11524;50.846;4.326;2023-02-13T01:40:47;10.50;;;8.30;;
22713;SDS011;11524;50.846;4.326;2023-02-13T01:43:14;14.43;;;9.90;;
22713;SDS011;11524;50.846;4.326;2023-02-13T01:45:40;11.52;;;8.85;;
22713;SDS011;11524;50.846;4.326;2023-02-13T01:48:14;12.82;;;9.68;;
22713;SDS011;11524;50.846;4.326;2023-02-13T01:50:44;11.90;;;8.93;;
22713;SDS011;11524;50.846;4.326;2023-02-13T01:53:28;12.10;;;9.00;;
22713;SDS011;11524;50.846;4.326;2023-02-13T01:56:13;15.45;;;10.70;;
22713;SDS011;11524;50.846;4.326;2023-02-13T01:58:45;12.45;;;9.38;;
22713;SDS011;11524;50.846;4.326;2023-02-13T02:01:13;19.65;;;13.98;;
22713;SDS011;11524;50.846;4.326;2023-02-13T02:03:41;18.10;;;13.05;;
22713;SDS011;11524;50.846;4.326;2023-02-13T02:06:22;20.50;;;14.75;;
22713;SDS011;11524;50.846;4.326;2023-02-13T02:08:51;20.27;;;13.57;;
22713;SDS011;11524;50.846;4.326;2023-02-13T02:11:25;19.30;;;14.63;;
22713;SDS011;11524;50.846;4.326;2023-02-13T02:14:04;15.27;;;11.73;;
22713;SDS011;11524;50.846;4.326;2023-02-13T02:16:30;16.13;;;12.27;;
22713;SDS011;11524;50.846;4.326;2023-02-13T02:18:57;20.67;;;14.65;;
22713;SDS011;11524;50.846;4.326;2023-02-13T02:21:45;19.77;;;14.45;;
22713;SDS011;11524;50.846;4.326;2023-02-13T02:27:01;22.27;;;15.93;;
22713;SDS011;11524;50.846;4.326;2023-02-13T02:32:42;21.67;;;15.77;;
22713;SDS011;11524;50.846;4.326;2023-02-13T02:35:26;18.77;;;13.43;;
22713;SDS011;11524;50.846;4.326;2023-02-13T02:43:32;19.42;;;14.70;;
22713;SDS011;11524;50.846;4.326;2023-02-13T02:46:22;21.67;;;14.05;;
22713;SDS011;11524;50.846;4.326;2023-02-13T02:49:31;17.23;;;12.57;;
22713;SDS011;11524;50.846;4.326;2023-02-13T02:52:25;20.92;;;15.13;;
22713;SDS011;11524;50.846;4.326;2023-02-13T02:55:11;24.40;;;17.42;;
22713;SDS011;11524;50.846;4.326;2023-02-13T02:57:44;25.23;;;16.75;;
22713;SDS011;11524;50.846;4.326;2023-02-13T03:00:38;21.35;;;15.57;;
22713;SDS011;11524;50.846;4.326;2023-02-13T03:03:25;20.70;;;15.13;;
22713;SDS011;11524;50.846;4.326;2023-02-13T03:06:12;19.95;;;14.70;;
22713;SDS011;11524;50.846;4.326;2023-02-13T03:08:43;19.75;;;12.90;;
22713;SDS011;11524;50.846;4.326;2023-02-13T03:11:35;19.38;;;14.70;;
22713;SDS011;11524;50.846;4.326;2023-02-13T03:14:20;22.23;;;14.60;;
22713;SDS011;11524;50.846;4.326;2023-02-13T03:16:50;20.83;;;15.20;;
22713;SDS011;11524;50.846;4.326;2023-02-13T03:19:43;21.60;;;15.65;;
22713;SDS011;11524;50.846;4.326;2023-02-13T03:25:42;20.55;;;13.95;;
22713;SDS011;11524;50.846;4.326;2023-02-13T03:28:15;20.38;;;14.55;;
22713;SDS011;11524;50.846;4.326;2023-02-13T03:34:01;19.15;;;14.15;;
22713;SDS011;11524;50.846;4.326;2023-02-13T03:36:33;25.55;;;17.20;;
22713;SDS011;11524;50.846;4.326;2023-02-13T03:39:40;21.50;;;15.63;;
22713;SDS011;11524;50.846;4.326;2023-02-13T03:45:12;24.52;;;17.15;;
22713;SDS011;11524;50.846;4.326;2023-02-13T03:48:01;21.77;;;15.35;;
22713;SDS011;11524;50.846;4.326;2023-02-13T03:50:33;19.92;;;13.70;;
22713;SDS011;11524;50.846;4.326;2023-02-13T03:53:06;22.35;;;15.45;;
22713;SDS011;11524;50.846;4.326;2023-02-13T03:55:35;22.98;;;16.67;;
22713;SDS011;11524;50.846;4.326;2023-02-13T03:58:29;22.90;;;16.00;;
22713;SDS011;11524;50.846;4.326;2023-02-13T04:01:21;21.67;;;15.43;;
22713;SDS011;11524;50.846;4.326;2023-02-13T04:03:51;22.67;;;15.80;;
22713;SDS011;11524;50.846;4.326;2023-02-13T04:06:45;18.35;;;14.05;;
22713;SDS011;11524;50.846;4.326;2023-02-13T04:09:20;19.70;;;14.57;;
22713;SDS011;11524;50.846;4.326;2023-02-13T04:14:32;20.77;;;15.07;;
22713;SDS011;11524;50.846;4.326;2023-02-13T04:17:23;20.88;;;15.40;;
22713;SDS011;11524;50.846;4.326;2023-02-13T04:19:55;21.30;;;15.95;;
22713;SDS011;11524;50.846;4.326;2023-02-13T04:22:21;24.38;;;17.17;;
22713;SDS011;11524;50.846;4.326;2023-02-13T04:24:46;20.08;;;14.73;;
22713;SDS011;11524;50.846;4.326;2023-02-13T04:27:13;24.20;;;16.60;;
22713;SDS011;11524;50.846;4.326;2023-02-13T04:29:40;21.73;;;15.13;;
22713;SDS011;11524;50.846;4.326;2023-02-13T04:32:06;20.65;;;15.20;;
22713;SDS011;11524;50.846;4.326;2023-02-13T04:34:31;21.88;;;14.95;;
22713;SDS011;11524;50.846;4.326;2023-02-13T04:36:57;18.77;;;13.82;;
22713;SDS011;11524;50.846;4.326;2023-02-13T04:39:23;23.50;;;16.65;;
22713;SDS011;11524;50.846;4.326;2023-02-13T04:41:48;21.10;;;15.43;;
22713;SDS011;11524;50.846;4.326;2023-02-13T04:44:14;22.77;;;15.98;;
22713;SDS011;11524;50.846;4.326;2023-02-13T04:46:39;24.05;;;16.10;;
22713;SDS011;11524;50.846;4.326;2023-02-13T04:49:05;23.40;;;15.50;;
22713;SDS011;11524;50.846;4.326;2023-02-13T04:51:30;21.60;;;15.20;;
22713;SDS011;11524;50.846;4.326;2023-02-13T04:53:56;22.52;;;16.30;;
22713;SDS011;11524;50.846;4.326;2023-02-13T04:56:21;22.65;;;15.27;;
22713;SDS011;11524;50.846;4.326;2023-02-13T04:58:47;22.73;;;16.67;;
22713;SDS011;11524;50.846;4.326;2023-02-13T05:01:13;23.98;;;16.27;;
22713;SDS011;11524;50.846;4.326;2023-02-13T05:03:40;22.50;;;16.23;;
22713;SDS011;11524;50.846;4.326;2023-02-13T05:06:05;23.40;;;15.65;;
22713;SDS011;11524;50.846;4.326;2023-02-13T05:08:31;20.55;;;14.98;;
22713;SDS011;11524;50.846;4.326;2023-02-13T05:10:57;22.85;;;15.68;;
22713;SDS011;11524;50.846;4.326;2023-02-13T05:13:23;23.80;;;16.83;;
22713;SDS011;11524;50.846;4.326;2023-02-13T05:15:48;18.77;;;14.05;;
22713;SDS011;11524;50.846;4.326;2023-02-13T05:18:16;21.98;;;16.17;;
22713;SDS011;11524;50.846;4.326;2023-02-13T05:20:42;20.55;;;14.02;;
22713;SDS011;11524;50.846;4.326;2023-02-13T05:23:09;21.65;;;13.60;;
22713;SDS011;11524;50.846;4.326;2023-02-13T05:25:47;19.83;;;14.05;;
22713;SDS011;11524;50.846;4.326;2023-02-13T05:28:13;22.83;;;15.93;;
22713;SDS011;11524;50.846;4.326;2023-02-13T05:33:22;20.88;;;14.27;;
22713;SDS011;11524;50.846;4.326;2023-02-13T05:35:48;23.88;;;15.38;;
22713;SDS011;11524;50.846;4.326;2023-02-13T05:38:14;22.77;;;15.85;;
22713;SDS011;11524;50.846;4.326;2023-02-13T05:40:39;21.40;;;15.85;;
22713;SDS011;11524;50.846;4.326;2023-02-13T05:43:05;21.00;;;15.15;;
22713;SDS011;11524;50.846;4.326;2023-02-13T05:45:30;20.75;;;15.57;;
22713;SDS011;11524;50.846;4.326;2023-02-13T05:47:56;22.65;;;16.17;;
22713;SDS011;11524;50.846;4.326;2023-02-13T05:50:21;19.67;;;13.93;;
22713;SDS011;11524;50.846;4.326;2023-02-13T05:52:47;20.25;;;15.02;;
22713;SDS011;11524;50.846;4.326;2023-02-13T05:55:12;18.90;;;14.52;;
22713;SDS011;11524;50.846;4.326;2023-02-13T05:57:38;19.98;;;14.82;;
22713;SDS011;11524;50.846;4.326;2023-02-13T06:00:04;22.85;;;16.23;;
22713;SDS011;11524;50.846;4.326;2023-02-13T06:02:30;17.70;;;12.68;;
22713;SDS011;11524;50.846;4.326;2023-02-13T06:04:56;20.30;;;15.25;;
22713;SDS011;11524;50.846;4.326;2023-02-13T06:07:21;20.40;;;14.85;;
22713;SDS011;11524;50.846;4.326;2023-02-13T06:09:47;20.27;;;14.48;;
22713;SDS011;11524;50.846;4.326;2023-02-13T06:12:12;19.20;;;13.73;;
22713;SDS011;11524;50.846;4.326;2023-02-13T06:14:38;19.20;;;13.75;;
22713;SDS011;11524;50.846;4.326;2023-02-13T06:17:03;18.75;;;13.68;;
22713;SDS011;11524;50.846;4.326;2023-02-13T06:19:29;17.58;;;13.05;;
22713;SDS011;11524;50.846;4.326;2023-02-13T06:21:54;17.98;;;12.70;;
22713;SDS011;11524;50.846;4.326;2023-02-13T06:24:20;20.33;;;13.85;;
22713;SDS011;11524;50.846;4.326;2023-02-13T06:26:46;17.88;;;13.27;;
22713;SDS011;11524;50.846;4.326;2023-02-13T06:29:11;19.23;;;12.70;;
22713;SDS011;11524;50.846;4.326;2023-02-13T06:31:37;20.13;;;14.45;;
22713;SDS011;11524;50.846;4.326;2023-02-13T06:34:02;22.17;;;15.13;;
22713;SDS011;11524;50.846;4.326;2023-02-13T06:36:28;22.15;;;13.90;;
22713;SDS011;11524;50.846;4.326;2023-02-13T06:38:54;22.40;;;15.60;;
22713;SDS011;11524;50.846;4.326;2023-02-13T06:41:19;21.98;;;15.93;;
22713;SDS011;11524;50.846;4.326;2023-02-13T06:43:45;22.70;;;13.25;;
22713;SDS011;11524;50.846;4.326;2023-02-13T06:46:10;19.27;;;13.63;;
22713;SDS011;11524;50.846;4.326;2023-02-13T06:48:36;19.08;;;14.18;;
22713;SDS011;11524;50.846;4.326;2023-02-13T06:51:02;17.52;;;13.10;;
22713;SDS011;11524;50.846;4.326;2023-02-13T06:53:28;18.77;;;13.57;;
22713;SDS011;11524;50.846;4.326;2023-02-13T06:55:54;20.52;;;13.88;;
22713;SDS011;11524;50.846;4.326;2023-02-13T06:58:21;17.58;;;13.95;;
22713;SDS011;11524;50.846;4.326;2023-02-13T07:00:48;19.90;;;13.68;;
22713;SDS011;11524;50.846;4.326;2023-02-13T07:03:17;17.48;;;12.43;;
22713;SDS011;11524;50.846;4.326;2023-02-13T07:05:43;19.65;;;14.60;;
22713;SDS011;11524;50.846;4.326;2023-02-13T07:08:09;16.20;;;12.07;;
22713;SDS011;11524;50.846;4.326;2023-02-13T07:10:39;18.67;;;13.13;;
22713;SDS011;11524;50.846;4.326;2023-02-13T07:13:06;18.20;;;13.27;;
22713;SDS011;11524;50.846;4.326;2023-02-13T07:15:32;20.10;;;13.73;;
22713;SDS011;11524;50.846;4.326;2023-02-13T07:17:59;18.30;;;12.95;;
22713;SDS011;11524;50.846;4.326;2023-02-13T07:20:25;17.27;;;12.77;;
22713;SDS011;11524;50.846;4.326;2023-02-13T07:22:51;20.67;;;13.50;;
22713;SDS011;11524;50.846;4.326;2023-02-13T07:25:17;17.85;;;13.63;;
22713;SDS011;11524;50.846;4.326;2023-02-13T07:27:43;15.93;;;12.10;;
22713;SDS011;11524;50.846;4.326;2023-02-13T07:30:09;18.88;;;13.85;;
22713;SDS011;11524;50.846;4.326;2023-02-13T07:32:35;20.27;;;13.93;;
22713;SDS011;11524;50.846;4.326;2023-02-13T07:35:01;19.60;;;14.52;;
22713;SDS011;11524;50.846;4.326;2023-02-13T07:37:27;22.88;;;14.07;;
22713;SDS011;11524;50.846;4.326;2023-02-13T07:39:53;22.50;;;13.35;;
22713;SDS011;11524;50.846;4.326;2023-02-13T07:42:19;20.08;;;12.25;;
22713;SDS011;11524;50.846;4.326;2023-02-13T07:44:44;18.40;;;12.65;;
22713;SDS011;11524;50.846;4.326;2023-02-13T07:47:10;24.77;;;13.15;;
22713;SDS011;11524;50.846;4.326;2023-02-13T07:49:36;20.55;;;12.80;;
22713;SDS011;11524;50.846;4.326;2023-02-13T07:52:02;19.95;;;14.20;;
22713;SDS011;11524;50.846;4.326;2023-02-13T07:54:29;18.23;;;13.02;;
22713;SDS011;11524;50.846;4.326;2023-02-13T07:56:54;17.52;;;12.18;;
22713;SDS011;11524;50.846;4.326;2023-02-13T07:59:20;20.30;;;13.25;;
22713;SDS011;11524;50.846;4.326;2023-02-13T08:01:46;18.67;;;12.18;;
22713;SDS011;11524;50.846;4.326;2023-02-13T08:04:11;18.92;;;12.32;;
22713;SDS011;11524;50.846;4.326;2023-02-13T08:06:39;17.05;;;12.90;;
22713;SDS011;11524;50.846;4.326;2023-02-13T08:09:07;20.30;;;12.90;;
22713;SDS011;11524;50.846;4.326;2023-02-13T08:12:04;18.67;;;13.32;;
22713;SDS011;11524;50.846;4.326;2023-02-13T08:14:31;18.67;;;12.32;;
22713;SDS011;11524;50.846;4.326;2023-02-13T08:16:57;20.25;;;13.40;;
22713;SDS011;11524;50.846;4.326;2023-02-13T08:19:24;18.17;;;12.50;;
22713;SDS011;11524;50.846;4.326;2023-02-13T08:21:49;20.13;;;13.30;;
22713;SDS011;11524;50.846;4.326;2023-02-13T08:24:15;18.98;;;12.63;;
22713;SDS011;11524;50.846;4.326;2023-02-13T08:26:41;17.55;;;12.90;;
22713;SDS011;11524;50.846;4.326;2023-02-13T08:29:07;18.58;;;12.32;;
22713;SDS011;11524;50.846;4.326;2023-02-13T08:31:33;18.80;;;12.65;;
22713;SDS011;11524;50.846;4.326;2023-02-13T08:33:58;17.35;;;11.27;;
22713;SDS011;11524;50.846;4.326;2023-02-13T08:36:24;18.08;;;13.48;;
22713;SDS011;11524;50.846;4.326;2023-02-13T08:38:50;17.60;;;12.45;;
22713;SDS011;11524;50.846;4.326;2023-02-13T08:41:15;15.55;;;11.85;;
22713;SDS011;11524;50.846;4.326;2023-02-13T08:43:46;16.75;;;12.15;;
22713;SDS011;11524;50.846;4.326;2023-02-13T08:46:12;15.68;;;11.00;;
22713;SDS011;11524;50.846;4.326;2023-02-13T08:48:38;15.70;;;11.05;;
22713;SDS011;11524;50.846;4.326;2023-02-13T08:51:07;17.80;;;11.52;;
22713;SDS011;11524;50.846;4.326;2023-02-13T08:53:34;18.05;;;12.13;;
22713;SDS011;11524;50.846;4.326;2023-02-13T08:56:00;15.93;;;10.57;;
22713;SDS011;11524;50.846;4.326;2023-02-13T08:58:26;16.30;;;11.70;;
22713;SDS011;11524;50.846;4.326;2023-02-13T09:00:51;16.15;;;11.70;;
22713;SDS011;11524;50.846;4.326;2023-02-13T09:03:17;16.20;;;10.93;;
22713;SDS011;11524;50.846;4.326;2023-02-13T09:05:43;18.10;;;11.77;;
22713;SDS011;11524;50.846;4.326;2023-02-13T09:08:08;16.42;;;11.73;;
22713;SDS011;11524;50.846;4.326;2023-02-13T09:10:35;16.33;;;11.73;;
22713;SDS011;11524;50.846;4.326;2023-02-13T09:13:02;14.52;;;10.98;;
22713;SDS011;11524;50.846;4.326;2023-02-13T09:15:28;14.20;;;11.57;;
22713;SDS011;11524;50.846;4.326;2023-02-13T09:17:54;17.65;;;11.50;;
22713;SDS011;11524;50.846;4.326;2023-02-13T09:20:20;16.85;;;11.40;;
22713;SDS011;11524;50.846;4.326;2023-02-13T09:22:46;18.60;;;12.95;;
22713;SDS011;11524;50.846;4.326;2023-02-13T09:25:11;16.58;;;11.27;;
22713;SDS011;11524;50.846;4.326;2023-02-13T09:27:37;17.42;;;12.15;;
22713;SDS011;11524;50.846;4.326;2023-02-13T09:30:06;14.65;;;10.70;;
22713;SDS011;11524;50.846;4.326;2023-02-13T09:32:34;13.48;;;10.10;;
22713;SDS011;11524;50.846;4.326;2023-02-13T09:35:01;13.90;;;10.98;;
22713;SDS011;11524;50.846;4.326;2023-02-13T09:37:27;15.93;;;10.95;;
22713;SDS011;11524;50.846;4.326;2023-02-13T09:39:53;18.02;;;10.85;;
22713;SDS011;11524;50.846;4.326;2023-02-13T09:42:20;12.57;;;9.57;;
22713;SDS011;11524;50.846;4.326;2023-02-13T09:44:50;14.65;;;10.10;;
22713;SDS011;11524;50.846;4.326;2023-02-13T09:47:31;13.77;;;9.32;;
22713;SDS011;11524;50.846;4.326;2023-02-13T09:50:43;13.70;;;9.60;;
22713;SDS011;11524;50.846;4.326;2023-02-13T09:52:53;14.85;;;10.15;;
22713;SDS011;11524;50.846;4.326;2023-02-13T09:55:22;16.30;;;10.43;;
22713;SDS011;11524;50.846;4.326;2023-02-13T10:00:34;11.02;;;8.10;;
22713;SDS011;11524;50.846;4.326;2023-02-13T10:10:52;12.65;;;9.55;;
22713;SDS011;11524;50.846;4.326;2023-02-13T10:21:57;11.82;;;8.70;;
22713;SDS011;11524;50.846;4.326;2023-02-13T10:24:45;11.68;;;8.52;;
22713;SDS011;11524;50.846;4.326;2023-02-13T10:27:21;13.45;;;9.48;;
22713;SDS011;11524;50.846;4.326;2023-02-13T10:30:04;12.45;;;8.43;;
22713;SDS011;11524;50.846;4.326;2023-02-13T10:37:50;12.77;;;8.68;;
22713;SDS011;11524;50.846;4.326;2023-02-13T10:40:19;11.77;;;8.73;;
22713;SDS011;11524;50.846;4.326;2023-02-13T10:43:28;10.82;;;8.05;;
22713;SDS011;11524;50.846;4.326;2023-02-13T10:45:48;11.25;;;8.48;;
22713;SDS011;11524;50.846;4.326;2023-02-13T10:48:44;9.35;;;7.28;;
22713;SDS011;11524;50.846;4.326;2023-02-13T10:51:34;10.43;;;7.90;;
22713;SDS011;11524;50.846;4.326;2023-02-13T10:54:16;10.25;;;7.50;;
22713;SDS011;11524;50.846;4.326;2023-02-13T11:02:32;10.55;;;7.22;;
22713;SDS011;11524;50.846;4.326;2023-02-13T11:07:39;10.80;;;7.30;;
22713;SDS011;11524;50.846;4.326;2023-02-13T11:10:12;9.60;;;7.65;;
22713;SDS011;11524;50.846;4.326;2023-02-13T11:12:41;10.07;;;7.20;;
22713;SDS011;11524;50.846;4.326;2023-02-13T11:15:08;11.15;;;7.47;;
22713;SDS011;11524;50.846;4.326;2023-02-13T11:18:10;10.25;;;7.60;;
22713;SDS011;11524;50.846;4.326;2023-02-13T11:20:43;11.07;;;7.60;;
22713;SDS011;11524;50.846;4.326;2023-02-13T11:26:21;11.90;;;7.18;;
22713;SDS011;11524;50.846;4.326;2023-02-13T11:28:47;10.88;;;7.75;;
22713;SDS011;11524;50.846;4.326;2023-02-13T11:34:16;12.32;;;7.63;;
22713;SDS011;11524;50.846;4.326;2023-02-13T11:36:45;11.85;;;7.55;;
22713;SDS011;11524;50.846;4.326;2023-02-13T11:39:22;10.38;;;7.30;;
22713;SDS011;11524;50.846;4.326;2023-02-13T11:41:50;9.82;;;7.18;;
22713;SDS011;11524;50.846;4.326;2023-02-13T11:44:21;9.70;;;7.32;;
22713;SDS011;11524;50.846;4.326;2023-02-13T11:46:56;9.32;;;7.00;;
22713;SDS011;11524;50.846;4.326;2023-02-13T11:49:24;9.90;;;7.07;;
22713;SDS011;11524;50.846;4.326;2023-02-13T11:51:57;12.10;;;7.73;;
22713;SDS011;11524;50.846;4.326;2023-02-13T11:59:53;9.52;;;6.40;;
22713;SDS011;11524;50.846;4.326;2023-02-13T12:04:52;8.73;;;7.07;;
22713;SDS011;11524;50.846;4.326;2023-02-13T12:07:38;8.32;;;7.03;;
22713;SDS011;11524;50.846;4.326;2023-02-13T12:12:45;9.75;;;6.97;;
22713;SDS011;11524;50.846;4.326;2023-02-13T12:15:20;10.30;;;6.70;;
22713;SDS011;11524;50.846;4.326;2023-02-13T12:26:39;9.50;;;6.85;;
22713;SDS011;11524;50.846;4.326;2023-02-13T12:40:11;10.55;;;7.22;;
22713;SDS011;11524;50.846;4.326;2023-02-13T12:48:23;8.75;;;6.78;;
22713;SDS011;11524;50.846;4.326;2023-02-13T12:53:36;8.13;;;6.22;;
22713;SDS011;11524;50.846;4.326;2023-02-13T13:01:44;6.72;;;5.47;;
22713;SDS011;11524;50.846;4.326;2023-02-13T13:12:51;7.63;;;5.65;;
22713;SDS011;11524;50.846;4.326;2023-02-13T13:15:35;7.72;;;5.75;;
22713;SDS011;11524;50.846;4.326;2023-02-13T13:29:11;7.80;;;5.20;;
22713;SDS011;11524;50.846;4.326;2023-02-13T13:31:53;6.93;;;5.22;;
22713;SDS011;11524;50.846;4.326;2023-02-13T13:34:24;5.57;;;4.82;;
22713;SDS011;11524;50.846;4.326;2023-02-13T13:48:24;7.32;;;5.10;;
22713;SDS011;11524;50.846;4.326;2023-02-13T13:51:01;9.13;;;5.32;;
22713;SDS011;11524;50.846;4.326;2023-02-13T13:53:29;6.32;;;5.25;;
22713;SDS011;11524;50.846;4.326;2023-02-13T14:03:43;8.10;;;4.93;;
22713;SDS011;11524;50.846;4.326;2023-02-13T14:06:17;6.22;;;4.93;;
22713;SDS011;11524;50.846;4.326;2023-02-13T14:11:28;5.70;;;4.88;;
22713;SDS011;11524;50.846;4.326;2023-02-13T14:13:58;7.28;;;5.45;;
22713;SDS011;11524;50.846;4.326;2023-02-13T14:24:48;7.45;;;5.38;;
22713;SDS011;11524;50.846;4.326;2023-02-13T14:27:26;7.82;;;5.97;;
22713;SDS011;11524;50.846;4.326;2023-02-13T14:30:04;11.20;;;6.10;;
22713;SDS011;11524;50.846;4.326;2023-02-13T14:32:46;9.93;;;5.53;;
22713;SDS011;11524;50.846;4.326;2023-02-13T14:45:52;9.02;;;6.18;;
22713;SDS011;11524;50.846;4.326;2023-02-13T14:48:42;8.27;;;4.95;;
22713;SDS011;11524;50.846;4.326;2023-02-13T14:54:17;8.30;;;5.43;;
22713;SDS011;11524;50.846;4.326;2023-02-13T14:56:47;7.22;;;5.20;;
22713;SDS011;11524;50.846;4.326;2023-02-13T14:59:15;7.50;;;4.95;;
22713;SDS011;11524;50.846;4.326;2023-02-13T15:01:52;5.97;;;4.60;;
22713;SDS011;11524;50.846;4.326;2023-02-13T15:04:31;9.23;;;4.72;;
22713;SDS011;11524;50.846;4.326;2023-02-13T15:07:03;6.25;;;4.45;;
22713;SDS011;11524;50.846;4.326;2023-02-13T15:09:33;5.55;;;3.95;;
22713;SDS011;11524;50.846;4.326;2023-02-13T15:12:23;6.75;;;5.13;;
22713;SDS011;11524;50.846;4.326;2023-02-13T15:14:48;5.95;;;4.43;;
22713;SDS011;11524;50.846;4.326;2023-02-13T15:19:43;7.28;;;5.15;;
22713;SDS011;11524;50.846;4.326;2023-02-13T15:22:29;8.38;;;4.95;;
22713;SDS011;11524;50.846;4.326;2023-02-13T15:25:19;7.50;;;5.15;;
22713;SDS011;11524;50.846;4.326;2023-02-13T15:28:14;7.00;;;5.00;;
22713;SDS011;11524;50.846;4.326;2023-02-13T15:30:51;6.47;;;4.65;;
22713;SDS011;11524;50.846;4.326;2023-02-13T15:33:20;6.85;;;4.35;;
22713;SDS011;11524;50.846;4.326;2023-02-13T15:35:52;5.13;;;3.58;;
22713;SDS011;11524;50.846;4.326;2023-02-13T15:38:27;5.93;;;4.13;;
22713;SDS011;11524;50.846;4.326;2023-02-13T15:40:58;8.32;;;4.30;;
22713;SDS011;11524;50.846;4.326;2023-02-13T15:43:34;6.80;;;4.63;;
22713;SDS011;11524;50.846;4.326;2023-02-13T15:46:18;7.13;;;4.32;;
22713;SDS011;11524;50.846;4.326;2023-02-13T15:48:48;7.15;;;4.97;;
22713;SDS011;11524;50.846;4.326;2023-02-13T15:51:19;6.93;;;4.00;;
22713;SDS011;11524;50.846;4.326;2023-02-13T15:53:50;5.53;;;4.43;;
22713;SDS011;11524;50.846;4.326;2023-02-13T15:56:16;6.45;;;4.47;;
22713;SDS011;11524;50.846;4.326;2023-02-13T15:58:42;5.93;;;4.40;;
22713;SDS011;11524;50.846;4.326;2023-02-13T16:01:08;7.82;;;5.22;;
22713;SDS011;11524;50.846;4.326;2023-02-13T16:03:34;7.28;;;5.45;;
22713;SDS011;11524;50.846;4.326;2023-02-13T16:06:01;9.77;;;4.80;;
22713;SDS011;11524;50.846;4.326;2023-02-13T16:08:31;8.07;;;5.20;;
22713;SDS011;11524;50.846;4.326;2023-02-13T16:25:03;6.13;;;3.55;;
22713;SDS011;11524;50.846;4.326;2023-02-13T16:27:40;7.97;;;4.57;;
22713;SDS011;11524;50.846;4.326;2023-02-13T16:32:50;7.97;;;5.38;;
22713;SDS011;11524;50.846;4.326;2023-02-13T16:35:25;9.88;;;5.40;;
22713;SDS011;11524;50.846;4.326;2023-02-13T16:37:59;9.65;;;4.30;;
22713;SDS011;11524;50.846;4.326;2023-02-13T16:48:44;8.07;;;4.93;;
22713;SDS011;11524;50.846;4.326;2023-02-13T16:56:46;12.93;;;6.90;;
22713;SDS011;11524;50.846;4.326;2023-02-13T17:04:35;15.13;;;7.57;;
22713;SDS011;11524;50.846;4.326;2023-02-13T17:07:03;9.30;;;6.55;;
22713;SDS011;11524;50.846;4.326;2023-02-13T17:09:29;11.00;;;6.70;;
22713;SDS011;11524;50.846;4.326;2023-02-13T17:11:54;9.80;;;6.78;;
22713;SDS011;11524;50.846;4.326;2023-02-13T17:14:20;10.25;;;6.57;;
22713;SDS011;11524;50.846;4.326;2023-02-13T17:16:46;10.77;;;5.72;;
22713;SDS011;11524;50.846;4.326;2023-02-13T17:19:12;9.27;;;5.88;;
22713;SDS011;11524;50.846;4.326;2023-02-13T17:21:38;8.85;;;5.93;;
22713;SDS011;11524;50.846;4.326;2023-02-13T17:24:04;9.52;;;6.35;;
22713;SDS011;11524;50.846;4.326;2023-02-13T17:26:31;9.60;;;5.95;;
22713;SDS011;11524;50.846;4.326;2023-02-13T17:28:56;10.02;;;7.75;;
22713;SDS011;11524;50.846;4.326;2023-02-13T17:31:22;9.77;;;6.75;;
22713;SDS011;11524;50.846;4.326;2023-02-13T17:33:47;10.13;;;7.10;;
22713;SDS011;11524;50.846;4.326;2023-02-13T17:36:13;9.25;;;7.45;;
22713;SDS011;11524;50.846;4.326;2023-02-13T17:38:39;9.45;;;6.90;;
22713;SDS011;11524;50.846;4.326;2023-02-13T17:41:07;11.75;;;7.32;;
22713;SDS011;11524;50.846;4.326;2023-02-13T17:43:38;8.77;;;6.43;;
22713;SDS011;11524;50.846;4.326;2023-02-13T17:46:03;10.60;;;7.57;;
22713;SDS011;11524;50.846;4.326;2023-02-13T17:48:29;11.65;;;7.15;;
22713;SDS011;11524;50.846;4.326;2023-02-13T17:50:54;10.25;;;7.28;;
22713;SDS011;11524;50.846;4.326;2023-02-13T17:53:21;10.07;;;6.88;;
22713;SDS011;11524;50.846;4.326;2023-02-13T17:55:50;11.40;;;6.55;;
22713;SDS011;11524;50.846;4.326;2023-02-13T17:58:16;9.98;;;6.88;;
22713;SDS011;11524;50.846;4.326;2023-02-13T18:00:41;11.07;;;7.30;;
22713;SDS011;11524;50.846;4.326;2023-02-13T18:03:07;7.85;;;6.18;;
22713;SDS011;11524;50.846;4.326;2023-02-13T18:05:35;11.10;;;6.85;;
22713;SDS011;11524;50.846;4.326;2023-02-13T18:08:00;9.00;;;6.82;;
22713;SDS011;11524;50.846;4.326;2023-02-13T18:10:27;8.90;;;6.93;;
22713;SDS011;11524;50.846;4.326;2023-02-13T18:12:54;13.25;;;8.50;;
22713;SDS011;11524;50.846;4.326;2023-02-13T18:15:21;11.95;;;7.97;;
22713;SDS011;11524;50.846;4.326;2023-02-13T18:17:48;10.65;;;7.40;;
22713;SDS011;11524;50.846;4.326;2023-02-13T18:20:15;9.38;;;7.35;;